Everton, Arkansas
Current Conditions -  °F | °C
As of 4:53 PM on Thursday 23 Oct 2014 (Local Time) from KHRO Reporting Station
Overcast Overcast  
Wind Chill: 63°   Ceiling: 6000
Heat Index: 63°   Visibility: 10mi
Dew Point: 54°   Wind: 3mph
Humidity: 72%   Direction: 170°S
Pressure: 30.13"   Gusts: NA
Location:  36.16°N, 92.91°W
Report Text: KHRO 232153Z AUTO 17003KT 10SM OVC060 17/12 A3013 RMK AO2 SLP200 T01720122
Loading
Personal Weather Stations






























Interactive Weather Map
Tropical Storm Tracking
New forecast layout! Learn more

10-Day Weather Forecast

Advertisements
Track Severe Weather on mobile